Latest Weather Observations for McArthur River Mine

IDD60801

Issued at 7:01 pm CST Saturday 29 August 2015 (issued every 30 minutes, with the page automatically refreshed every 10 minutes)

About weather observations | Map of weather stations | Latest weather observations for NT | Other Formats
Station Details ID: 014704 Name: MCARTHUR RIVER MINE AIRPORT Lat: -16.44 Lon: 136.08 Height: 40.0 m
Data from the previous 72 hours. | See also: Recent months at McArthur River Mine
Date/Time
CST
Temp
°C
App
Temp
°C
Dew
Point
Rel
Hum
%
Delta-T
°C
Wind Press
QNH
hPa
Press
MSL
hPa
Rain
since 9 am
mm
Dir
 
Spd
km/h
Gust
km/h
Spd
kts
Gust
kts
29/07:00pm 29.9 26.7 8.3 26 11.9 SSW 15 19 8 10 1015.0 - 0.0
29/06:30pm 30.3 28.7 8.1 25 12.2 SSE 6 9 3 5 1014.7 - 0.0
29/06:00pm 31.4 26.3 7.8 23 13.0 SW 24 32 13 17 1014.0 1013.8 0.0
29/05:30pm 33.6 31.5 6.8 19 14.7 S 7 11 4 6 1013.6 - 0.0
29/05:00pm 33.9 32.1 7.0 19 14.8 N 6 11 3 6 1013.5 - 0.0
29/04:30pm 34.0 32.0 7.1 19 14.8 WNW 7 13 4 7 1013.4 - 0.0
29/04:00pm 33.5 31.4 6.7 19 14.6 E 7 11 4 6 1013.4 - 0.0
29/03:30pm 33.9 31.0 6.3 18 15.0 SSW 11 15 6 8 1013.7 - 0.0
29/03:00pm 33.5 31.0 6.7 19 14.6 N 9 13 5 7 1014.0 1013.8 0.0
29/02:30pm 32.9 30.1 7.0 20 14.2 ESE 11 15 6 8 1014.5 - 0.0
29/02:00pm 33.4 30.7 7.4 20 14.4 SE 11 19 6 10 1015.1 - 0.0
29/01:30pm 32.7 29.5 6.8 20 14.1 NNE 13 22 7 12 1015.6 - 0.0
29/01:00pm 32.1 29.9 6.3 20 13.9 ENE 7 15 4 8 1016.2 - 0.0
29/12:30pm 32.7 30.3 6.8 20 14.1 SE 9 24 5 13 1016.8 - 0.0
29/12:00pm 31.5 29.0 6.5 21 13.4 NE 9 17 5 9 1017.2 1017.1 0.0
29/11:30am 31.4 28.3 7.1 22 13.2 E 13 20 7 11 1017.7 - 0.0
29/11:00am 31.3 27.5 7.7 23 13.0 E 17 24 9 13 1018.1 - 0.0
29/10:30am 29.2 26.5 7.2 25 11.8 SE 11 17 6 9 1018.4 - 0.0
29/10:00am 28.7 25.4 7.9 27 11.3 ESE 15 26 8 14 1018.6 - 0.0
29/09:30am 27.6 25.9 8.5 30 10.4 SSE 7 15 4 8 1018.7 - 0.0
29/09:00am 25.1 22.6 8.1 34 9.1 S 11 17 6 9 1018.6 1018.5 0.0
29/08:30am 23.4 21.4 8.7 39 7.9 SSW 9 13 5 7 1018.2 - 0.0
29/08:00am 21.9 19.9 8.8 43 7.0 SW 9 13 5 7 1017.9 - 0.0
29/07:30am 20.1 18.9 9.7 51 5.6 SW 6 7 3 4 1017.5 - 0.0
29/07:00am 18.9 17.4 9.1 53 5.1 SW 7 9 4 5 1017.3 - 0.0
29/06:30am 19.2 17.0 9.4 53 5.2 SSW 11 11 6 6 1017.1 - 0.0
29/06:27am 19.4 17.3 9.6 53 5.2 SW 11 11 6 6 1017.1 - 0.0
29/06:12am 18.9 16.8 9.7 55 4.9 SW 11 13 6 7 1017.0 - 0.0
29/06:00am 17.9 16.5 9.5 58 4.4 WSW 7 9 4 5 1016.9 1016.8 0.0
29/05:30am 18.4 17.2 9.7 57 4.6 WNW 6 9 3 5 1016.7 - 0.0
29/05:00am 19.0 17.2 9.5 54 5.0 SSW 9 9 5 5 1016.3 - 0.0
29/04:30am 19.3 18.0 9.8 54 5.1 WSW 7 9 4 5 1016.3 - 0.0
29/04:00am 20.0 18.9 9.9 52 5.4 WNW 6 6 3 3 1016.4 - 0.0
29/03:30am 20.4 19.3 9.9 51 5.6 SSW 6 7 3 4 1016.6 - 0.0
29/03:00am 21.9 20.5 8.8 43 7.0 S 6 7 3 4 1016.7 1016.6 0.0
29/02:30am 23.6 22.1 9.2 40 7.8 SSE 7 7 4 4 1016.7 - 0.0
29/02:00am 23.6 21.6 8.8 39 7.9 SE 9 11 5 6 1016.9 - 0.0
29/01:30am 24.5 22.7 9.6 39 8.1 SE 9 13 5 7 1017.2 - 0.0
29/01:00am 24.0 22.7 9.9 41 7.7 SE 7 9 4 5 1017.2 - 0.0
29/12:30am 24.2 23.1 9.8 40 7.9 E 6 9 3 5 1017.5 - 0.0
29/12:00am 25.5 23.7 9.3 36 8.8 SSE 9 13 5 7 1017.5 1017.4 0.0
 
Date/Time
CST
Temp
°C
App
Temp
°C
Dew
Point
Rel
Hum
%
Delta-T
°C
Wind Press
QNH
hPa
Press
MSL
hPa
Rain
since 9 am
mm
Dir
 
Spd
km/h
Gust
km/h
Spd
kts
Gust
kts
28/11:30pm 25.1 25.1 12.3 45 7.4 SSE 4 9 2 5 1017.7 - 0.0
28/11:00pm 25.4 25.7 13.3 47 7.1 E 4 6 2 3 1017.7 - 0.0
28/10:30pm 25.4 25.7 14.5 51 6.5 SW 6 11 3 6 1017.6 - 0.0
28/10:00pm 26.1 26.8 16.1 54 6.1 NNE 7 13 4 7 1017.4 - 0.0
28/09:30pm 26.2 26.4 14.3 48 7.1 ENE 6 7 3 4 1017.2 - 0.0
28/09:00pm 26.6 26.7 14.0 46 7.5 E 6 7 3 4 1016.9 1016.8 0.0
28/08:30pm 27.3 27.5 14.3 45 7.8 NE 6 7 3 4 1016.7 - 0.0
28/08:00pm 27.9 28.2 14.5 44 8.1 ENE 6 7 3 4 1016.3 - 0.0
28/07:30pm 29.2 28.6 14.6 41 8.9 S 11 17 6 9 1015.8 - 0.0
28/07:00pm 29.6 27.9 14.6 40 9.1 NE 17 22 9 12 1014.4 - 0.0
28/06:56pm 29.7 27.8 14.3 39 9.3 NE 17 22 9 12 1014.3 - 0.0
28/06:39pm 30.2 28.7 14.3 38 9.6 NNE 15 24 8 13 1014.0 - 0.0
28/06:30pm 30.5 28.4 13.7 35 10.1 NNE 17 24 9 13 1013.8 - 0.0
28/06:00pm 32.1 30.1 12.8 30 11.5 NE 15 22 8 12 1013.4 1013.2 0.0
28/05:30pm 34.2 32.2 8.8 21 14.4 S 9 15 5 8 1012.8 - 0.0
28/05:00pm 34.0 31.8 7.9 20 14.6 SSE 9 17 5 9 1012.7 - 0.0
28/04:30pm 34.3 31.6 8.8 21 14.5 SE 13 26 7 14 1012.5 - 0.0
28/04:00pm 34.7 32.5 9.2 21 14.6 E 11 22 6 12 1012.6 - 0.0
28/03:30pm 34.0 30.6 9.3 22 14.1 SSE 17 24 9 13 1012.7 - 0.0
28/03:00pm 34.7 33.4 9.9 22 14.3 N 7 20 4 11 1013.1 1012.9 0.0
28/02:30pm 34.6 32.5 9.8 22 14.3 ENE 11 17 6 9 1013.5 - 0.0
28/02:00pm 33.5 31.7 10.8 25 13.2 E 11 19 6 10 1014.1 - 0.0
28/01:30pm 33.0 30.8 10.9 26 12.9 ENE 13 20 7 11 1014.7 - 0.0
28/01:00pm 32.8 30.6 10.8 26 12.8 E 13 20 7 11 1015.5 - 0.0
28/12:30pm 32.7 31.0 11.3 27 12.5 SE 11 19 6 10 1016.1 - 0.0
28/12:00pm 31.8 29.7 11.0 28 12.0 ESE 13 35 7 19 1016.8 1016.7 0.0
28/11:30am 31.2 29.2 11.6 30 11.4 ESE 13 20 7 11 1017.3 - 0.0
28/11:00am 31.2 28.6 12.1 31 11.2 ESE 17 24 9 13 1017.8 - 0.0
28/10:30am 29.9 27.8 12.3 33 10.3 E 15 24 8 13 1018.1 - 0.0
28/10:00am 29.3 27.2 12.3 35 10.0 E 15 22 8 12 1017.9 - 0.0
28/09:30am 28.1 25.7 12.8 38 9.0 ESE 17 24 9 13 1018.0 - 0.0
28/09:00am 26.8 25.7 15.2 49 7.0 ESE 15 26 8 14 1017.9 1017.8 0.0
28/08:30am 24.4 26.2 18.8 71 3.6 SSW 7 11 4 6 1017.9 - 0.0
28/08:00am 22.7 24.3 19.1 80 2.3 SW 9 11 5 6 1017.7 - 0.0
28/07:30am 20.3 22.5 19.3 94 0.6 WSW 6 7 3 4 1017.5 - 0.0
28/07:00am 19.0 21.1 19.0 100 0.0 WSW 6 7 3 4 1017.3 - 0.0
28/06:30am 18.5 19.8 18.5 100 0.0 WSW 9 9 5 5 1016.9 - 0.0
28/06:00am 18.8 21.1 18.5 98 0.2 SW 4 7 2 4 1016.1 1016.0 0.0
28/05:30am 19.2 22.5 19.2 100 0.0 CALM 0 0 0 0 1015.8 - 0.0
28/05:21am 19.2 22.4 18.9 98 0.2 CALM 0 6 0 3 1015.8 - 0.0
28/05:02am 19.3 21.8 19.1 99 0.1 WSW 4 6 2 3 1015.8 - 0.0
28/05:00am 19.3 21.7 18.8 97 0.3 WSW 4 6 2 3 1015.8 - 0.0
28/04:30am 19.4 22.2 17.9 91 0.9 CALM 0 0 0 0 1015.7 - 0.0
28/04:00am 20.1 23.4 19.1 94 0.6 CALM 0 0 0 0 1015.5 - 0.0
28/03:54am 20.2 23.4 18.9 92 0.8 CALM 0 0 0 0 1015.6 - 0.0
28/03:30am 20.3 23.2 18.2 88 1.3 CALM 0 0 0 0 1015.8 - 0.0
28/03:28am 20.3 23.2 18.1 87 1.4 CALM 0 0 0 0 1015.9 - 0.0
28/03:00am 21.0 23.6 17.4 80 2.2 CALM 0 0 0 0 1015.9 1015.8 0.0
28/02:30am 22.1 24.5 18.7 81 2.1 N 4 7 2 4 1016.0 - 0.0
28/02:00am 21.9 23.8 18.5 81 2.1 N 6 7 3 4 1016.3 - 0.0
28/01:30am 22.1 24.3 18.3 79 2.4 NNW 4 7 2 4 1016.6 - 0.0
28/01:00am 22.6 25.5 18.2 76 2.8 CALM 0 0 0 0 1016.9 - 0.0
28/12:30am 23.4 24.5 18.1 72 3.3 SSW 9 11 5 6 1017.2 - 0.0
28/12:00am 23.9 25.4 17.6 68 3.9 NNE 6 6 3 3 1017.0 1016.9 0.0
 
Date/Time
CST
Temp
°C
App
Temp
°C
Dew
Point
Rel
Hum
%
Delta-T
°C
Wind Press
QNH
hPa
Press
MSL
hPa
Rain
since 9 am
mm
Dir
 
Spd
km/h
Gust
km/h
Spd
kts
Gust
kts
27/11:30pm 24.5 25.8 17.5 65 4.4 NNE 7 11 4 6 1017.0 - 0.0
27/11:00pm 24.7 26.1 17.7 65 4.4 NNE 7 9 4 5 1016.8 - 0.0
27/10:30pm 25.2 26.8 18.2 65 4.4 NNE 7 11 4 6 1016.8 - 0.0
27/10:00pm 25.7 27.2 18.1 63 4.8 NNE 7 13 4 7 1016.7 - 0.0
27/09:30pm 26.3 26.9 17.6 58 5.5 NNE 11 19 6 10 1016.7 - 0.0
27/09:00pm 26.9 27.0 16.5 53 6.4 NNE 11 15 6 8 1016.4 1016.3 0.0
27/08:32pm 27.7 27.2 16.0 49 7.2 NE 13 20 7 11 1016.0 - 0.0
27/08:30pm 27.8 27.3 15.8 48 7.4 NE 13 20 7 11 1015.9 - 0.0
27/08:20pm 28.0 27.4 15.6 46 7.6 NE 13 19 7 10 1015.9 - 0.0
27/08:00pm 28.6 27.1 15.2 44 8.2 NE 17 26 9 14 1015.4 - 0.0
27/07:30pm 29.4 27.7 14.8 41 8.9 NE 17 28 9 15 1015.0 - 0.0
27/07:00pm 30.1 28.4 14.6 39 9.4 NNE 17 24 9 13 1014.4 - 0.0
27/06:30pm 31.1 28.7 13.8 34 10.4 NE 19 26 10 14 1014.0 - 0.0
27/06:00pm 33.0 31.5 9.1 23 13.5 ESE 7 11 4 6 1013.6 1013.4 0.0
27/05:30pm 33.8 31.1 9.1 22 14.0 ESE 13 20 7 11 1013.2 - 0.0
27/05:00pm 33.7 31.4 9.0 22 14.0 SE 11 17 6 9 1013.0 - 0.0
27/04:30pm 34.1 32.1 8.7 21 14.4 SSE 9 17 5 9 1012.9 - 0.0
27/04:00pm 34.0 32.0 8.6 21 14.3 ESE 9 19 5 10 1012.9 - 0.0
27/03:30pm 34.5 32.2 9.0 21 14.5 ESE 11 20 6 11 1013.0 - 0.0
27/03:00pm 33.8 30.4 9.1 22 14.0 SE 17 26 9 14 1013.2 1013.0 0.0
27/02:30pm 34.4 31.5 9.6 22 14.2 ESE 15 26 8 14 1013.6 - 0.0
27/02:00pm 33.8 30.6 9.8 23 13.8 ESE 17 26 9 14 1014.1 - 0.0
27/01:30pm 33.2 30.0 9.9 24 13.4 E 17 28 9 15 1014.5 - 0.0
27/01:00pm 33.6 30.3 9.6 23 13.7 ESE 17 30 9 16 1015.1 - 0.0
27/12:30pm 33.1 30.2 9.8 24 13.3 E 15 24 8 13 1015.7 - 0.0
27/12:00pm 32.7 29.5 10.1 25 13.0 SE 17 24 9 13 1016.3 1016.2 0.0
27/11:30am 31.3 27.8 8.9 25 12.5 SSE 17 26 9 14 1016.8 - 0.0
27/11:00am 31.5 27.9 9.7 26 12.4 SSE 19 30 10 16 1017.3 - 0.0
27/10:30am 30.0 26.8 8.4 26 11.9 S 15 24 8 13 1017.7 - 0.0
27/10:00am 28.9 25.4 8.6 28 11.2 S 17 28 9 15 1017.9 - 0.0
27/09:30am 27.3 24.2 8.7 31 10.2 S 15 20 8 11 1018.0 - 0.0
27/09:00am 26.1 22.7 7.7 31 9.8 S 15 20 8 11 1017.9 1017.8 0.0
27/08:30am 25.2 21.3 6.9 31 9.6 S 17 24 9 13 1017.8 - 0.0
27/08:00am 23.8 20.9 6.6 33 8.9 S 11 17 6 9 1017.5 - 0.0
27/07:30am 22.7 20.2 6.5 35 8.3 S 9 13 5 7 1017.3 - 0.0
27/07:00am 22.4 19.6 7.0 37 7.9 S 11 15 6 8 1017.0 - 0.0
27/06:30am 22.6 19.8 11.4 49 6.3 SSE 17 22 9 12 1016.9 - 0.0
27/06:00am 22.5 25.4 21.8 96 0.5 S 9 13 5 7 1016.5 1016.4 0.0
27/05:30am 21.3 24.0 21.3 100 0.0 WSW 9 11 5 6 1016.3 - 0.0
27/05:00am 22.2 26.8 21.7 97 0.3 CALM 0 0 0 0 1016.0 - 0.0
27/04:30am 22.7 26.4 22.2 97 0.3 S 6 7 3 4 1015.9 - 0.0
27/04:00am 22.8 26.5 22.3 97 0.3 SSW 6 9 3 5 1015.6 - 0.0
27/03:50am 22.9 26.5 22.4 97 0.3 SSW 7 9 4 5 1015.6 - 0.0
27/03:30am 22.9 26.8 22.6 98 0.2 S 6 7 3 4 1015.4 - 0.0
27/03:12am 22.7 26.0 22.5 99 0.1 SSW 9 13 5 7 1015.5 - 0.0
27/03:00am 22.6 25.9 22.6 100 0.0 SSW 9 15 5 8 1015.6 1015.5 0.0
27/02:30am 22.8 26.3 22.8 100 0.0 SSW 9 15 5 8 1015.1 - 0.0
27/02:00am 22.6 25.2 22.6 100 0.0 SSW 13 19 7 10 1015.3 - 0.0
27/01:30am 22.8 27.2 22.8 100 0.0 N 4 6 2 3 1015.0 - 0.0
27/01:00am 23.0 26.6 23.0 100 0.0 NE 9 13 5 7 1015.0 - 0.0
27/12:43am 23.1 27.1 22.8 98 0.2 N 6 9 3 5 1015.3 - 0.0
27/12:31am 23.4 27.1 22.6 95 0.5 N 7 9 4 5 1015.5 - 0.0
27/12:30am 23.4 27.2 22.7 96 0.5 N 7 9 4 5 1015.5 - 0.0
27/12:00am 23.6 26.5 21.1 86 1.6 NNE 7 13 4 7 1015.8 1015.7 0.0
 
Date/Time
CST
Temp
°C
App
Temp
°C
Dew
Point
Rel
Hum
%
Delta-T
°C
Wind Press
QNH
hPa
Press
MSL
hPa
Rain
since 9 am
mm
Dir
 
Spd
km/h
Gust
km/h
Spd
kts
Gust
kts
26/11:30pm 24.0 26.4 20.1 79 2.5 N 7 11 4 6 1015.8 - 0.0
26/11:00pm 24.5 26.5 20.0 76 2.9 N 9 17 5 9 1015.9 - 0.0
26/10:30pm 24.8 26.0 19.0 70 3.7 N 11 15 6 8 1015.8 - 0.0
26/10:00pm 25.4 26.1 18.8 67 4.2 N 13 17 7 9 1015.6 - 0.0
26/09:30pm 25.9 26.2 18.8 65 4.5 NNE 15 26 8 14 1015.7 - 0.0
26/09:00pm 26.2 26.4 18.6 63 4.8 N 15 26 8 14 1015.5 1015.3 0.0
26/08:35pm 26.9 26.2 18.2 59 5.5 N 19 26 10 14 1015.3 - 0.0
26/08:30pm 27.0 26.2 18.0 58 5.7 N 19 26 10 14 1015.2 - 0.0
26/08:23pm 27.1 27.0 17.8 56 5.9 N 15 22 8 12 1015.1 - 0.0
26/08:00pm 27.7 27.2 17.8 54 6.3 NNE 17 24 9 13 1014.6 - 0.0
26/07:30pm 28.5 27.8 18.3 54 6.5 NNE 19 26 10 14 1014.0 - 0.0

Other Formats:

Comma delimited format used in spreadsheet applications
http://www.bom.gov.au/fwo/IDD60801/IDD60801.94239.axf

JavaScript Object Notation format (JSON) in row-major order
http://www.bom.gov.au/fwo/IDD60801/IDD60801.94239.json